HG5CJW Weather Reports


Display with metric or nautical units.
time (UTC)temp
F
wind
direction
speed
MPH
gust
MPH
rain 1hr
in
rain 24hr
in
rain mn
in
humidity
%
barometer
mb
20190318164607 45 315 8.0 11.0 0.00 0.18 0.18 48 1013.1
20190318163143 45 315 5.0 8.0 0.00 0.18 0.18 49 1012.7
20190318161543 45 270 8.0 10.0 0.00 0.18 0.18 49 1012.5
20190318160031 45 315 9.0 12.0 0.00 0.18 0.18 50 1012.5
20190318154607 45 248 10.0 11.0 0.00 0.18 0.18 56 1012.2
20190318153055 46 315 6.0 10.0 0.00 0.18 0.18 58 1011.9
20190318150031 45 293 8.0 11.0 0.00 0.18 0.18 60 1011.5
20190318143054 45 270 8.0 15.0 0.00 0.18 0.18 58 1011.5
20190318141921 46 315 10.0 15.0 0.00 0.18 0.18 58 1011.3
20190318140031 46 315 17.0 20.0 0.00 0.18 0.18 56 1011.0
20190318134606 46 293 14.0 19.0 0.00 0.18 0.18 59 1011.0
20190318133054 46 270 8.0 13.0 0.00 0.18 0.18 60 1011.0
20190318131542 45 315 15.0 21.0 0.00 0.18 0.18 59 1010.9
20190318130030 45 270 11.0 17.0 0.00 0.18 0.18 59 1011.0
20190318124606 46 270 13.0 22.0 0.00 0.18 0.18 60 1010.7
20190318123054 46 270 15.0 21.0 0.00 0.18 0.18 60 1010.6
20190318121542 46 270 18.0 27.0 0.00 0.18 0.18 60 1011.0
20190318120030 46 248 18.0 25.0 0.00 0.18 0.18 62 1011.0
20190318114606 45 315 15.0 23.0 0.00 0.18 0.18 63 1010.9
20190318113054 45 270 18.0 27.0 0.00 0.18 0.18 64 1011.0
20190318111542 46 248 21.0 31.0 0.01 0.18 0.18 64 1011.1
20190318110030 46 315 15.0 23.0 0.01 0.18 0.18 65 1010.8
20190318104606 45 293 15.0 22.0 0.01 0.18 0.18 64 1010.5
20190318103054 46 315 21.0 27.0 0.01 0.18 0.18 62 1010.3
20190318101542 46 0 16.0 20.0 0.00 0.17 0.17 61 1010.4
20190318100030 46 315 12.0 18.0 0.00 0.17 0.17 62 1010.0
20190318094605 46 270 17.0 30.0 0.01 0.17 0.17 63 1010.3
20190318093053 46 315 19.0 23.0 0.01 0.17 0.17 63 1009.6
20190318091542 46 225 18.0 26.0 0.01 0.17 0.17 65 1009.5
20190318090121 46 270 11.0 15.0 0.01 0.17 0.17 65 1009.7
20190318084606 46 315 12.0 16.0 0.00 0.15 0.15 67 1009.3
20190318083053 45 270 14.0 19.0 0.00 0.15 0.15 68 1009.4
20190318081541 45 315 19.0 30.0 0.00 0.15 0.15 68 1009.3
20190318080121 46 315 24.0 29.0 0.00 0.15 0.15 67 1009.3
20190318074605 46 270 15.0 21.0 0.00 0.15 0.15 68 1009.3
20190318073053 46 293 17.0 26.0 0.00 0.15 0.15 68 1009.2
20190318071541 45 315 11.0 19.0 0.00 0.15 0.15 68 1008.9
20190318070121 45 315 22.0 33.0 0.00 0.15 0.15 68 1008.9
20190318064604 45 270 18.0 27.0 0.00 0.15 0.15 68 1009.0
20190318063053 45 270 21.0 28.0 0.00 0.15 0.15 70 1009.0
20190318061540 44 293 13.0 20.0 0.00 0.15 0.15 71 1008.1
20190318054604 44 315 13.0 19.0 0.00 0.15 0.15 71 1007.7
20190318053052 44 315 16.0 21.0 0.00 0.15 0.15 72 1007.3
20190318051540 44 225 14.0 19.0 0.00 0.15 0.15 72 1007.7
20190318050123 44 315 11.0 20.0 0.00 0.15 0.15 72 1007.4
20190318044604 44 248 17.0 27.0 0.00 0.15 0.15 71 1007.1
20190318043052 45 315 15.0 23.0 0.00 0.15 0.15 70 1006.4
20190318041540 45 315 9.0 15.0 0.00 0.15 0.15 68 1006.6
20190318040121 46 315 15.0 23.0 0.00 0.15 0.15 66 1006.4
20190318034604 47 315 15.0 18.0 0.00 0.15 0.15 63 1006.6
20190318033052 47 315 21.0 29.0 0.00 0.15 0.15 63 1006.7
20190318031540 47 270 17.0 25.0 0.00 0.15 0.15 65 1006.4
20190318030204 48 248 15.0 23.0 0.00 0.15 0.15 64 1006.3
20190318024604 48 315 17.0 21.0 0.02 0.15 0.15 63 1005.9
20190318023052 49 315 14.0 26.0 0.02 0.15 0.15 63 1005.6
20190318021540 49 270 16.0 19.0 0.11 0.15 0.15 64 1005.3
20190318020122 49 270 25.0 39.0 0.11 0.14 0.14 64 1005.3
20190318014604 50 0 24.0 36.0 0.13 0.13 0.13 64 1004.9
20190318013052 50 225 25.0 35.0 0.13 0.13 0.13 65 1004.7
20190318011539 51 338 27.0 34.0 0.05 0.05 0.05 67 1004.6
20190318010121 52 315 36.0 46.0 0.04 0.04 0.04 68 1004.7
20190318004604 52 225 11.0 15.0 0.00 0.00 0.00 72 1003.8
20190318003052 52 225 8.0 11.0 0.00 0.00 0.00 73 1003.5
20190318000121 53 225 10.0 11.0 0.00 0.00 0.00 72 1003.3
20190317234603 53 180 11.0 21.0 0.00 0.00 0.00 71 1003.3
20190317233051 53 180 11.0 15.0 0.00 0.00 0.00 70 1003.3
20190317231539 54 180 13.0 17.0 0.00 0.00 0.00 68 1003.4
20190317230121 53 203 10.0 11.0 0.00 0.00 0.00 69 1003.2
20190317224603 52 180 6.0 9.0 0.00 0.00 0.00 70 1003.0
20190317223051 52 180 7.0 10.0 0.00 0.00 0.00 69 1003.0
20190317221539 52 90 4.0 8.0 0.00 0.00 0.00 69 1003.3
20190317220122 52 90 5.0 8.0 0.00 0.00 0.00 68 1003.4
20190317214603 53 0 4.0 8.0 0.00 0.00 0.00 67 1003.3
20190317213051 53 135 2.0 4.0 0.00 0.00 0.00 66 1003.3
20190317211539 55 180 3.0 6.0 0.00 0.00 0.00 62 1003.2
20190317204603 56 180 5.0 8.0 0.00 0.00 0.00 61 1003.3
20190317203050 56 135 8.0 10.0 0.00 0.00 0.00 61 1003.3
20190317201538 56 180 11.0 13.0 0.00 0.00 0.00 61 1003.4
20190317200121 56 180 8.0 10.0 0.00 0.00 0.00 59 1003.2
20190317194602 58 135 6.0 8.0 0.00 0.00 0.00 54 1003.3
20190317193050 58 225 5.0 7.0 0.00 0.00 0.00 52 1003.2
20190317191538 57 180 3.0 5.0 0.00 0.00 0.00 55 1003.1
20190317190203 58 135 2.0 4.0 0.00 0.00 0.00 53 1003.0
20190317184602 58 135 2.0 3.0 0.00 0.00 0.00 54 1003.0
20190317183050 59 135 2.0 3.0 0.00 0.00 0.00 52 1003.0
20190317181538 59 203 4.0 5.0 0.00 0.00 0.00 51 1003.0
20190317180120 59 135 4.0 4.0 0.00 0.00 0.00 50 1003.2
20190317174602 60 135 2.0 4.0 0.00 0.00 0.00 49 1003.1
20190317173050 61 180 4.0 7.0 0.00 0.00 0.00 46 1003.1
20190317171538 62 90 7.0 11.0 0.00 0.00 0.00 45 1003.2
20190317170202 64 180 4.0 8.0 0.00 0.00 0.00 43 1003.2